Time;durP1;ratioP1;P1;durP2;ratioP2;P2;SDS_P1;SDS_P2;PMS_P1;PMS_P2;Temp;Humidity;BMP_temperature;BMP_pressure;BME280_temperature;BME280_humidity;BME280_pressure;Samples;Min_cycle;Max_cycle;Signal;HPM_P1;HPM_P2
2022/03/12 00:02:17;;;;;;;14.43;1.70;;;9.80;99.90;;;;;;5063527;28;20044;-75
2022/03/12 00:04:45;;;;;;;12.13;1.60;;;9.80;99.90;;;;;;5063847;28;20282;-75
2022/03/12 00:07:12;;;;;;;16.55;2.10;;;9.60;99.90;;;;;;5063355;28;20041;-76
2022/03/12 00:09:38;;;;;;;10.98;1.63;;;9.50;99.90;;;;;;5064562;28;20054;-75
2022/03/12 00:12:04;;;;;;;11.63;1.58;;;9.40;99.90;;;;;;5066733;28;20017;-75
2022/03/12 00:14:31;;;;;;;17.02;1.95;;;9.30;99.90;;;;;;5050476;28;20020;-75
2022/03/12 00:16:57;;;;;;;11.73;1.45;;;9.20;99.90;;;;;;5099957;28;20303;-75
2022/03/12 00:19:23;;;;;;;11.80;1.83;;;9.10;99.90;;;;;;5100352;28;20036;-76
2022/03/12 00:21:50;;;;;;;13.82;1.90;;;9.10;99.90;;;;;;5083464;28;20083;-76
2022/03/12 00:24:17;;;;;;;12.23;1.65;;;9.10;99.90;;;;;;5083726;28;20031;-77
2022/03/12 00:26:49;;;;;;;11.50;1.33;;;9.10;99.90;;;;;;5083156;28;20025;-75
2022/03/12 00:29:16;;;;;;;7.78;1.30;;;9.10;99.90;;;;;;5083493;28;20017;-76
2022/03/12 00:31:44;;;;;;;10.32;0.98;;;9.10;99.90;;;;;;5066110;28;20239;-76
2022/03/12 00:34:09;;;;;;;9.63;1.45;;;9.10;99.90;;;;;;5083182;28;20066;-76
2022/03/12 00:36:35;;;;;;;9.63;1.45;;;9.10;99.90;;;;;;5083295;28;20304;-76
2022/03/12 00:39:01;;;;;;;10.10;1.58;;;9.10;99.90;;;;;;5062583;28;20232;-76
2022/03/12 00:41:26;;;;;;;6.70;1.33;;;9.10;99.90;;;;;;5064016;28;20039;-76
2022/03/12 00:43:52;;;;;;;8.85;1.30;;;9.10;99.90;;;;;;5046365;28;20375;-75
2022/03/12 00:46:20;;;;;;;9.55;1.55;;;9.00;99.90;;;;;;5062553;28;20040;-76
2022/03/12 00:48:45;;;;;;;7.70;1.17;;;9.00;99.90;;;;;;5062560;28;20048;-76
2022/03/12 00:51:12;;;;;;;13.90;2.00;;;9.00;99.90;;;;;;5063683;28;20067;-77
2022/03/12 00:53:39;;;;;;;6.90;1.70;;;9.00;99.90;;;;;;5063119;28;20020;-76
2022/03/12 00:56:06;;;;;;;13.15;1.55;;;9.00;99.90;;;;;;5062528;28;20051;-75
2022/03/12 00:58:32;;;;;;;9.05;1.63;;;9.00;99.90;;;;;;5046067;28;20021;-77
2022/03/12 01:00:58;;;;;;;11.13;1.48;;;9.00;99.90;;;;;;5062494;28;20044;-77
2022/03/12 01:03:24;;;;;;;5.70;1.13;;;9.00;99.90;;;;;;5063596;28;20044;-76
2022/03/12 01:05:58;;;;;;;5.65;1.00;;;9.00;99.90;;;;;;5063933;28;20024;-75
2022/03/12 01:08:25;;;;;;;7.40;1.73;;;8.80;99.90;;;;;;5060953;28;20127;-75
2022/03/12 01:10:52;;;;;;;6.35;0.98;;;8.80;99.90;;;;;;5062637;28;20028;-75
2022/03/12 01:13:20;;;;;;;4.57;0.70;;;8.80;99.90;;;;;;5060168;28;20039;-75
2022/03/12 01:15:46;;;;;;;5.07;1.00;;;8.70;99.90;;;;;;5082790;28;20024;-75
2022/03/12 01:18:14;;;;;;;2.55;0.80;;;8.70;99.90;;;;;;5082518;28;20020;-76
2022/03/12 01:20:41;;;;;;;2.97;0.63;;;8.70;99.90;;;;;;5083736;28;20051;-76
2022/03/12 01:23:07;;;;;;;5.22;1.13;;;8.80;99.90;;;;;;5082484;28;20027;-77
2022/03/12 01:25:33;;;;;;;7.35;0.70;;;8.70;99.90;;;;;;5082722;28;20016;-75
2022/03/12 01:27:59;;;;;;;4.57;0.90;;;8.80;99.90;;;;;;5082421;28;20051;-75
2022/03/12 01:30:28;;;;;;;4.03;1.40;;;8.80;99.90;;;;;;5082128;28;20029;-77
2022/03/12 01:32:54;;;;;;;1.85;0.73;;;8.80;99.90;;;;;;5065768;28;20028;-77
2022/03/12 01:35:20;;;;;;;6.63;0.95;;;8.80;99.90;;;;;;5083892;28;20139;-76
2022/03/12 01:37:46;;;;;;;2.47;0.50;;;8.80;99.90;;;;;;5071668;28;20024;-76
2022/03/12 01:40:12;;;;;;;3.72;0.80;;;8.80;99.90;;;;;;5062443;28;20025;-76
2022/03/12 01:42:37;;;;;;;6.35;0.50;;;8.80;99.90;;;;;;5063323;28;20044;-75
2022/03/12 01:45:07;;;;;;;4.97;0.68;;;8.90;99.90;;;;;;5045539;28;20040;-76
2022/03/12 01:47:33;;;;;;;4.65;0.60;;;9.00;99.90;;;;;;5063163;28;20037;-75
2022/03/12 01:49:59;;;;;;;7.15;0.60;;;9.00;99.90;;;;;;5062277;28;20067;-75
2022/03/12 01:52:25;;;;;;;1.85;0.52;;;9.00;99.90;;;;;;5045340;28;20060;-74
2022/03/12 01:54:51;;;;;;;3.92;0.40;;;8.90;99.90;;;;;;5062352;28;20118;-76
2022/03/12 01:57:16;;;;;;;3.67;0.60;;;8.90;99.90;;;;;;5062072;28;20331;-75
2022/03/12 01:59:43;;;;;;;2.50;0.40;;;8.90;99.90;;;;;;5045296;28;20067;-75
2022/03/12 02:02:13;;;;;;;2.55;0.40;;;8.90;99.90;;;;;;5062858;28;20021;-74
2022/03/12 02:04:40;;;;;;;2.50;0.20;;;8.90;99.90;;;;;;5078772;28;20095;-76
2022/03/12 02:07:06;;;;;;;7.60;1.33;;;8.90;99.90;;;;;;5062846;28;20021;-75
2022/03/12 02:09:31;;;;;;;4.43;0.50;;;8.90;99.90;;;;;;5043699;28;20033;-76
2022/03/12 02:11:57;;;;;;;3.17;0.50;;;8.90;99.90;;;;;;5064793;28;20016;-76
2022/03/12 02:14:26;;;;;;;4.80;0.68;;;8.90;99.90;;;;;;5082086;28;20028;-75
2022/03/12 02:16:55;;;;;;;1.10;0.40;;;8.90;99.90;;;;;;5081998;28;20242;-75
2022/03/12 02:19:25;;;;;;;2.28;0.55;;;8.80;99.90;;;;;;5065609;28;20017;-76
2022/03/12 02:21:53;;;;;;;1.33;0.30;;;8.80;99.90;;;;;;5081975;28;20021;-76
2022/03/12 02:24:21;;;;;;;3.67;0.63;;;8.80;99.90;;;;;;5083278;28;20082;-76
2022/03/12 02:26:48;;;;;;;2.17;0.50;;;8.80;99.90;;;;;;5098763;28;20319;-75
2022/03/12 02:29:20;;;;;;;3.25;0.50;;;8.80;99.90;;;;;;5081716;28;20304;-76
2022/03/12 02:31:48;;;;;;;1.67;0.40;;;8.90;99.90;;;;;;5081317;28;20078;-75
2022/03/12 02:34:21;;;;;;;3.28;0.63;;;9.00;99.90;;;;;;5082006;28;20092;-76
2022/03/12 02:36:49;;;;;;;3.25;0.60;;;9.10;99.90;;;;;;5099298;28;20025;-76
2022/03/12 02:39:16;;;;;;;4.47;0.50;;;9.10;99.90;;;;;;5066695;28;20088;-76
2022/03/12 02:41:42;;;;;;;4.18;0.95;;;9.10;99.90;;;;;;5066424;28;20017;-75
2022/03/12 02:44:10;;;;;;;5.38;0.73;;;9.00;99.90;;;;;;5065415;28;20330;-76
2022/03/12 02:46:40;;;;;;;2.65;0.52;;;9.00;99.90;;;;;;5065016;28;20037;-75
2022/03/12 02:49:06;;;;;;;2.42;0.60;;;8.90;99.90;;;;;;5065871;28;20123;-75
2022/03/12 02:51:34;;;;;;;4.60;0.70;;;8.90;99.90;;;;;;5065228;28;20017;-74
2022/03/12 02:54:00;;;;;;;6.65;1.00;;;8.90;99.90;;;;;;5064854;28;20017;-75
2022/03/12 02:56:28;;;;;;;3.28;0.70;;;8.90;99.90;;;;;;5065129;28;20027;-76
2022/03/12 02:58:54;;;;;;;4.95;0.85;;;8.90;99.90;;;;;;5064743;28;20063;-75
2022/03/12 03:01:22;;;;;;;3.72;1.00;;;8.80;99.90;;;;;;5065660;28;20021;-76
2022/03/12 03:03:48;;;;;;;4.25;0.60;;;8.90;99.90;;;;;;5064693;28;20025;-75
2022/03/12 03:06:15;;;;;;;2.65;0.70;;;8.80;99.90;;;;;;5064630;28;20327;-76
2022/03/12 03:08:42;;;;;;;6.35;0.95;;;8.80;99.90;;;;;;5064205;28;20290;-75
2022/03/12 03:11:12;;;;;;;2.63;0.70;;;8.70;99.90;;;;;;5062960;28;20220;-76
2022/03/12 03:13:44;;;;;;;2.58;0.45;;;8.70;99.90;;;;;;5081740;28;20055;-76
2022/03/12 03:16:21;;;;;;;2.88;0.68;;;8.60;99.90;;;;;;5068700;28;20024;-75
2022/03/12 03:18:52;;;;;;;4.07;0.50;;;8.70;99.90;;;;;;5085578;28;20119;-75
2022/03/12 03:21:20;;;;;;;3.07;0.50;;;8.70;99.90;;;;;;5085773;28;20263;-75
2022/03/12 03:23:47;;;;;;;2.65;0.43;;;8.60;99.90;;;;;;5084931;28;20016;-75
2022/03/12 03:26:18;;;;;;;6.22;0.70;;;8.60;99.90;;;;;;5101477;28;20122;-76
2022/03/12 03:28:44;;;;;;;0.77;0.30;;;8.60;99.90;;;;;;5051485;28;20215;-75
2022/03/12 03:31:11;;;;;;;5.45;0.60;;;8.60;99.90;;;;;;5085135;28;20024;-75
2022/03/12 03:33:36;;;;;;;2.53;0.43;;;8.50;99.90;;;;;;5067491;28;20032;-78
2022/03/12 03:36:02;;;;;;;5.63;0.90;;;8.50;99.90;;;;;;5085672;28;20028;-75
2022/03/12 03:38:28;;;;;;;1.77;0.40;;;8.40;99.90;;;;;;5084487;28;20066;-76
2022/03/12 03:40:54;;;;;;;3.92;0.82;;;8.40;99.90;;;;;;5080740;28;20029;-75
2022/03/12 03:43:22;;;;;;;5.15;0.80;;;8.40;99.90;;;;;;5064286;28;20045;-76
2022/03/12 03:45:51;;;;;;;5.00;0.70;;;8.50;99.90;;;;;;5063891;28;20232;-76
2022/03/12 03:48:18;;;;;;;2.35;0.50;;;8.50;99.90;;;;;;5063180;28;20083;-75
2022/03/12 03:50:46;;;;;;;2.28;0.40;;;8.50;99.90;;;;;;5047042;28;20033;-76
2022/03/12 03:53:15;;;;;;;4.93;0.50;;;8.50;99.90;;;;;;5064162;28;20021;-76
2022/03/12 03:55:42;;;;;;;4.47;0.50;;;8.50;99.90;;;;;;5047238;28;20323;-75
2022/03/12 03:58:10;;;;;;;2.85;0.52;;;8.40;99.90;;;;;;5063934;28;20025;-76
2022/03/12 04:00:36;;;;;;;1.27;0.40;;;8.40;99.90;;;;;;5064551;28;20059;-75
2022/03/12 04:03:02;;;;;;;3.58;0.60;;;8.40;99.90;;;;;;5064496;28;20308;-75
2022/03/12 04:05:31;;;;;;;3.35;0.50;;;8.30;99.90;;;;;;5065122;28;20088;-75
2022/03/12 04:07:59;;;;;;;4.47;0.95;;;8.30;99.90;;;;;;5064778;28;20036;-75
2022/03/12 04:10:25;;;;;;;2.53;0.75;;;8.10;99.90;;;;;;5063685;28;20031;-75
2022/03/12 04:12:51;;;;;;;3.63;0.65;;;8.10;99.90;;;;;;5072166;28;20020;-76
2022/03/12 04:15:17;;;;;;;2.70;0.88;;;8.10;99.90;;;;;;5084767;28;20304;-75
2022/03/12 04:17:44;;;;;;;4.55;0.80;;;8.00;99.90;;;;;;5083777;28;20099;-76
2022/03/12 04:20:14;;;;;;;2.58;0.60;;;7.90;99.90;;;;;;5083479;28;20031;-76
2022/03/12 04:22:40;;;;;;;4.15;0.40;;;7.80;99.90;;;;;;5100130;28;20091;-75
2022/03/12 04:25:11;;;;;;;2.00;0.47;;;7.70;99.90;;;;;;5084772;28;20016;-75
2022/03/12 04:27:38;;;;;;;4.30;0.70;;;7.60;99.90;;;;;;5050327;28;20044;-75
2022/03/12 04:30:06;;;;;;;2.10;0.70;;;7.60;99.90;;;;;;5050088;28;20077;-76
2022/03/12 04:32:32;;;;;;;5.03;0.50;;;7.60;99.90;;;;;;5099718;28;20091;-76
2022/03/12 04:34:58;;;;;;;5.85;0.60;;;7.60;99.90;;;;;;5083980;28;20024;-76
2022/03/12 04:37:24;;;;;;;4.80;0.82;;;7.70;99.90;;;;;;5075966;28;20017;-75
2022/03/12 04:39:49;;;;;;;5.45;0.60;;;7.60;99.90;;;;;;5062790;28;20027;-75
2022/03/12 04:42:22;;;;;;;3.15;1.15;;;7.50;99.90;;;;;;5064288;28;20084;-75
2022/03/12 04:44:48;;;;;;;5.55;0.60;;;7.50;99.90;;;;;;5063917;28;20028;-76
2022/03/12 04:47:19;;;;;;;2.10;0.40;;;7.40;99.90;;;;;;5063135;28;20024;-76
2022/03/12 04:49:46;;;;;;;2.53;0.60;;;7.40;99.90;;;;;;5046458;28;20052;-75
2022/03/12 04:52:12;;;;;;;7.40;0.98;;;7.30;99.90;;;;;;5062799;28;20047;-77
2022/03/12 04:54:39;;;;;;;6.03;1.27;;;7.30;99.90;;;;;;5063786;28;20251;-76
2022/03/12 04:57:05;;;;;;;4.00;0.80;;;7.30;99.90;;;;;;5063148;28;20054;-76
2022/03/12 04:59:31;;;;;;;8.05;0.68;;;7.30;99.90;;;;;;5063481;28;20020;-76
2022/03/12 05:01:58;;;;;;;6.40;1.08;;;7.30;99.90;;;;;;5063517;28;20088;-75
2022/03/12 05:04:23;;;;;;;4.45;0.93;;;7.40;99.90;;;;;;5063805;28;20096;-75
2022/03/12 05:06:49;;;;;;;5.13;0.63;;;7.40;99.90;;;;;;5062614;28;20017;-75
2022/03/12 05:09:15;;;;;;;7.65;0.82;;;7.40;99.90;;;;;;5046118;28;20033;-75
2022/03/12 05:11:41;;;;;;;5.50;1.30;;;7.50;99.90;;;;;;5062899;28;20207;-75
2022/03/12 05:14:10;;;;;;;8.75;0.70;;;7.50;99.90;;;;;;5082271;28;20028;-75
2022/03/12 05:16:36;;;;;;;4.90;0.80;;;7.40;99.90;;;;;;5083778;28;20070;-77
2022/03/12 05:19:06;;;;;;;8.68;1.20;;;7.40;99.90;;;;;;5083707;28;20316;-75
2022/03/12 05:21:32;;;;;;;6.65;0.95;;;7.40;99.90;;;;;;5082514;28;20017;-76
2022/03/12 05:23:58;;;;;;;8.63;0.90;;;7.40;99.90;;;;;;5083836;28;20093;-76
2022/03/12 05:26:26;;;;;;;9.23;1.08;;;7.40;99.90;;;;;;5066014;28;20028;-76
2022/03/12 05:28:51;;;;;;;7.47;0.95;;;7.40;99.90;;;;;;5083345;28;20224;-76
2022/03/12 05:31:17;;;;;;;12.88;1.13;;;7.50;99.90;;;;;;5048130;28;20020;-76
2022/03/12 05:33:43;;;;;;;12.18;0.82;;;7.50;99.90;;;;;;5049091;28;20373;-76
2022/03/12 05:36:09;;;;;;;10.05;1.30;;;7.50;99.90;;;;;;5082512;28;20242;-76
2022/03/12 05:38:36;;;;;;;13.73;1.65;;;7.50;99.90;;;;;;5081828;28;20032;-76
2022/03/12 05:41:09;;;;;;;9.18;0.80;;;7.50;99.90;;;;;;5045154;28;20096;-75
2022/03/12 05:43:39;;;;;;;12.27;2.13;;;7.50;99.90;;;;;;5062367;28;20020;-75
2022/03/12 05:46:05;;;;;;;14.07;1.38;;;7.50;99.90;;;;;;5062150;28;20028;-76
2022/03/12 05:48:32;;;;;;;6.85;1.00;;;7.50;99.90;;;;;;5063151;28;20053;-76
2022/03/12 05:50:58;;;;;;;9.15;1.10;;;7.50;99.90;;;;;;5062115;28;20110;-76
2022/03/12 05:53:25;;;;;;;13.77;1.63;;;7.50;99.90;;;;;;5062295;28;20029;-76
2022/03/12 05:55:51;;;;;;;10.43;1.25;;;7.50;99.90;;;;;;5062309;28;20021;-76
2022/03/12 05:58:19;;;;;;;11.68;1.35;;;7.50;99.90;;;;;;5062150;28;20024;-75
2022/03/12 06:00:46;;;;;;;10.05;1.67;;;7.50;99.90;;;;;;5045210;28;20220;-76
2022/03/12 06:03:12;;;;;;;7.25;1.98;;;7.40;99.90;;;;;;5061995;28;20024;-76
2022/03/12 06:05:41;;;;;;;12.95;1.00;;;7.40;99.90;;;;;;5045724;28;20080;-76
2022/03/12 06:08:08;;;;;;;17.35;2.20;;;7.40;99.90;;;;;;5045726;28;20044;-75
2022/03/12 06:10:35;;;;;;;14.45;1.55;;;7.40;99.90;;;;;;5063352;28;20028;-76
2022/03/12 06:13:03;;;;;;;16.98;1.45;;;7.40;99.90;;;;;;5076009;28;20054;-76
2022/03/12 06:15:29;;;;;;;14.15;1.40;;;7.50;99.90;;;;;;5086159;28;20024;-75
2022/03/12 06:17:54;;;;;;;5.72;0.80;;;7.40;99.90;;;;;;5102755;28;20027;-76
2022/03/12 06:20:23;;;;;;;16.08;1.73;;;7.40;99.90;;;;;;5086859;28;20062;-76
2022/03/12 06:22:50;;;;;;;19.83;1.40;;;7.50;99.90;;;;;;5085525;28;20016;-76
2022/03/12 06:25:17;;;;;;;11.77;1.55;;;7.50;99.90;;;;;;5086031;28;20354;-76
2022/03/12 06:27:47;;;;;;;16.67;2.20;;;7.50;99.90;;;;;;5086728;28;20028;-76
2022/03/12 06:30:14;;;;;;;11.02;1.75;;;7.50;99.90;;;;;;5102322;28;20098;-76
2022/03/12 06:32:42;;;;;;;11.55;2.10;;;7.50;99.90;;;;;;5086267;28;20035;-77
2022/03/12 06:35:10;;;;;;;19.02;1.92;;;7.60;99.90;;;;;;5086672;28;20019;-76
2022/03/12 06:37:35;;;;;;;10.48;1.20;;;7.60;99.90;;;;;;5085636;28;20021;-76
2022/03/12 06:40:01;;;;;;;11.38;1.60;;;7.50;99.90;;;;;;5085581;28;20092;-76
2022/03/12 06:42:31;;;;;;;11.30;1.35;;;7.60;99.90;;;;;;5085271;28;20020;-76
2022/03/12 06:44:57;;;;;;;12.88;1.50;;;7.60;99.90;;;;;;5085128;28;20023;-76
2022/03/12 06:47:29;;;;;;;11.32;1.20;;;7.60;99.90;;;;;;5086472;28;20066;-76
2022/03/12 06:49:56;;;;;;;;;;;7.60;99.90;;;;;;5086365;28;20095;-76
2022/03/12 06:52:23;;;;;;;13.85;1.40;;;7.60;99.90;;;;;;5086025;28;20098;-76
2022/03/12 06:54:51;;;;;;;18.50;1.65;;;7.60;99.90;;;;;;5085282;28;20020;-77
2022/03/12 06:57:17;;;;;;;16.38;1.58;;;7.60;99.90;;;;;;5086531;28;20207;-76
2022/03/12 06:59:42;;;;;;;15.05;2.63;;;7.60;99.90;;;;;;5086081;28;20054;-76
2022/03/12 07:02:08;;;;;;;15.25;1.58;;;7.70;99.90;;;;;;5067751;28;20024;-76
2022/03/12 07:04:34;;;;;;;12.80;1.63;;;7.60;99.90;;;;;;5086244;28;20311;-77
2022/03/12 07:07:01;;;;;;;12.70;2.15;;;7.60;99.90;;;;;;5085009;28;20035;-76
2022/03/12 07:09:27;;;;;;;16.98;1.73;;;7.60;99.90;;;;;;5085063;28;20311;-76
2022/03/12 07:11:58;;;;;;;17.90;2.20;;;7.70;99.90;;;;;;5081772;28;20311;-76
2022/03/12 07:14:24;;;;;;;16.95;1.42;;;7.70;99.90;;;;;;5063130;28;20071;-77
2022/03/12 07:16:50;;;;;;;9.95;2.05;;;7.70;99.90;;;;;;5064298;28;20251;-76
2022/03/12 07:19:16;;;;;;;12.70;1.50;;;7.70;99.90;;;;;;5065375;28;20028;-77
2022/03/12 07:21:41;;;;;;;10.30;1.27;;;7.70;99.90;;;;;;5064118;28;20029;-77
2022/03/12 07:24:07;;;;;;;8.93;1.05;;;7.70;99.90;;;;;;5064008;28;20044;-76
2022/03/12 07:26:33;;;;;;;11.48;1.40;;;7.70;99.90;;;;;;5064504;28;20208;-76
2022/03/12 07:29:00;;;;;;;7.88;1.13;;;7.70;99.90;;;;;;5065497;28;20051;-77
2022/03/12 07:31:26;;;;;;;6.82;1.33;;;7.80;99.90;;;;;;5080480;28;20020;-75
2022/03/12 07:33:52;;;;;;;10.35;1.02;;;7.80;99.90;;;;;;5065356;28;20035;-76
2022/03/12 07:36:17;;;;;;;11.07;1.83;;;7.90;99.90;;;;;;5081088;28;20021;-76
2022/03/12 07:38:44;;;;;;;8.95;1.02;;;7.90;99.90;;;;;;5081077;28;20032;-76
2022/03/12 07:41:09;;;;;;;15.80;1.63;;;7.90;99.90;;;;;;5064374;28;20017;-76
2022/03/12 07:43:35;;;;;;;11.48;1.50;;;7.90;99.90;;;;;;5065171;28;20017;-75
2022/03/12 07:46:01;;;;;;;7.32;1.50;;;8.00;99.90;;;;;;5064278;28;20021;-77
2022/03/12 07:48:28;;;;;;;11.07;1.08;;;8.00;99.90;;;;;;5063830;28;20060;-76
2022/03/12 07:50:54;;;;;;;10.20;1.65;;;8.00;99.90;;;;;;5031043;28;20025;-76
2022/03/12 07:53:20;;;;;;;11.50;1.25;;;8.10;99.90;;;;;;5063742;28;20033;-76
2022/03/12 07:55:46;;;;;;;14.27;1.30;;;8.10;99.90;;;;;;5064176;28;20017;-75
2022/03/12 07:58:12;;;;;;;8.50;1.63;;;8.20;99.90;;;;;;5065104;28;20032;-76
2022/03/12 08:00:37;;;;;;;8.18;1.60;;;8.10;99.90;;;;;;5063671;28;20029;-76
2022/03/12 08:03:06;;;;;;;12.77;1.45;;;8.20;99.90;;;;;;5064640;28;20035;-77
2022/03/12 08:05:32;;;;;;;11.50;1.17;;;8.30;99.90;;;;;;5047835;28;20021;-75
2022/03/12 08:08:00;;;;;;;10.27;1.80;;;8.30;99.90;;;;;;5064959;28;20067;-77
2022/03/12 08:10:26;;;;;;;17.50;1.63;;;8.40;99.90;;;;;;5063893;28;20256;-77
2022/03/12 08:12:52;;;;;;;9.75;1.33;;;8.40;99.90;;;;;;5062909;28;20179;-77
2022/03/12 08:15:19;;;;;;;12.75;1.75;;;8.50;99.90;;;;;;5063620;28;20020;-76
2022/03/12 08:17:47;;;;;;;8.27;1.73;;;8.50;99.90;;;;;;5064681;28;20044;-77
2022/03/12 08:20:14;;;;;;;10.55;1.45;;;8.50;99.90;;;;;;5063200;28;20017;-76
2022/03/12 08:22:44;;;;;;;11.07;1.63;;;8.60;99.90;;;;;;5064578;28;20048;-77
2022/03/12 08:25:12;;;;;;;12.23;1.55;;;8.60;99.90;;;;;;5063327;28;20017;-75
2022/03/12 08:27:39;;;;;;;9.68;1.45;;;8.70;99.90;;;;;;5063519;28;20311;-77
2022/03/12 08:30:07;;;;;;;11.43;1.70;;;8.70;99.90;;;;;;5046718;28;20064;-75
2022/03/12 08:32:35;;;;;;;8.00;1.17;;;8.70;99.90;;;;;;5062323;28;20017;-76
2022/03/12 08:35:05;;;;;;;10.63;1.15;;;8.70;99.90;;;;;;5063339;28;20047;-76
2022/03/12 08:37:32;;;;;;;9.45;1.35;;;8.80;99.90;;;;;;5072858;28;20023;-76
2022/03/12 08:39:58;;;;;;;7.88;1.20;;;8.90;99.90;;;;;;5082936;28;20020;-76
2022/03/12 08:42:24;;;;;;;6.68;0.93;;;8.90;99.90;;;;;;5083164;28;20034;-77
2022/03/12 08:44:50;;;;;;;12.93;1.73;;;9.00;99.90;;;;;;5082528;28;20067;-75
2022/03/12 08:47:16;;;;;;;14.35;1.58;;;9.00;99.90;;;;;;5084068;28;20311;-76
2022/03/12 08:49:42;;;;;;;10.57;1.20;;;9.00;99.90;;;;;;5083153;28;20043;-74
2022/03/12 08:52:08;;;;;;;10.00;0.90;;;9.10;99.90;;;;;;5082897;28;20104;-76
2022/03/12 08:54:34;;;;;;;10.95;1.33;;;9.10;99.90;;;;;;5099687;28;20032;-75
2022/03/12 08:57:00;;;;;;;10.23;1.35;;;9.20;99.90;;;;;;5082826;28;20052;-76
2022/03/12 08:59:26;;;;;;;8.73;0.90;;;9.20;99.90;;;;;;5082696;28;20078;-75
2022/03/12 09:01:51;;;;;;;10.50;1.00;;;9.30;99.90;;;;;;5099212;28;20099;-75
2022/03/12 09:04:19;;;;;;;11.95;1.25;;;9.30;99.90;;;;;;5082805;28;20020;-76
2022/03/12 09:06:46;;;;;;;12.85;1.40;;;9.40;99.90;;;;;;5082686;28;20200;-75
2022/03/12 09:09:12;;;;;;;12.60;1.58;;;9.50;99.90;;;;;;5083851;28;20362;-77
2022/03/12 09:11:38;;;;;;;9.10;1.02;;;9.50;99.90;;;;;;5081999;28;20059;-76
2022/03/12 09:14:04;;;;;;;10.98;1.38;;;9.60;99.90;;;;;;5062340;28;20212;-74
2022/03/12 09:16:30;;;;;;;6.22;1.00;;;9.60;99.90;;;;;;5077022;28;20031;-76
2022/03/12 09:18:56;;;;;;;9.25;1.35;;;9.70;99.90;;;;;;5045658;28;20021;-76
2022/03/12 09:21:22;;;;;;;5.30;1.15;;;9.60;99.90;;;;;;5063413;28;20021;-74
2022/03/12 09:23:47;;;;;;;8.90;1.10;;;9.70;99.90;;;;;;5078909;28;20331;-74
2022/03/12 09:26:13;;;;;;;5.78;1.30;;;9.70;99.90;;;;;;5063243;28;20240;-75
2022/03/12 09:28:39;;;;;;;9.25;0.88;;;9.80;99.90;;;;;;5078851;28;20092;-76
2022/03/12 09:31:06;;;;;;;12.35;1.48;;;9.90;99.90;;;;;;5062759;28;20021;-74
2022/03/12 09:33:32;;;;;;;6.90;0.93;;;9.90;99.90;;;;;;5062220;28;20017;-75
2022/03/12 09:35:58;;;;;;;7.85;0.85;;;9.90;99.90;;;;;;5045265;28;20032;-74
2022/03/12 09:38:24;;;;;;;10.32;1.10;;;9.90;99.90;;;;;;5078182;28;20013;-74
2022/03/12 09:40:50;;;;;;;8.88;0.90;;;9.90;99.90;;;;;;5098844;28;20083;-74
2022/03/12 09:43:16;;;;;;;6.00;0.95;;;9.90;99.90;;;;;;5082037;28;20023;-73
2022/03/12 09:45:41;;;;;;;6.68;0.80;;;9.80;99.90;;;;;;5068855;28;20311;-75
2022/03/12 09:48:08;;;;;;;11.10;1.88;;;9.90;99.90;;;;;;5087803;28;20165;-75
2022/03/12 09:50:34;;;;;;;6.40;1.63;;;9.90;99.90;;;;;;5087558;28;20059;-76
2022/03/12 09:53:00;;;;;;;13.65;1.50;;;10.00;99.90;;;;;;5087506;28;20041;-75
2022/03/12 09:55:26;;;;;;;8.40;1.10;;;10.10;99.90;;;;;;5086245;28;20033;-75
2022/03/12 09:57:53;;;;;;;14.88;2.20;;;10.10;99.90;;;;;;5086071;28;20034;-76
2022/03/12 10:00:19;;;;;;;10.45;1.40;;;10.10;99.90;;;;;;5087272;28;20087;-76
2022/03/12 10:02:45;;;;;;;13.95;2.28;;;10.10;99.90;;;;;;5085473;28;20058;-76
2022/03/12 10:05:13;;;;;;;13.45;2.08;;;10.20;99.90;;;;;;5086102;28;20032;-77
2022/03/12 10:07:41;;;;;;;12.32;1.52;;;10.30;99.90;;;;;;5069386;28;20036;-75
2022/03/12 10:10:14;;;;;;;11.32;2.05;;;10.30;99.90;;;;;;5069632;28;20096;-77
2022/03/12 10:12:39;;;;;;;12.35;1.88;;;10.40;99.90;;;;;;5093211;28;20017;-76
2022/03/12 10:15:05;;;;;;;9.25;1.30;;;10.40;99.90;;;;;;5066998;28;20131;-77
2022/03/12 10:17:31;;;;;;;19.75;1.95;;;10.40;99.90;;;;;;5048079;28;20017;-77
2022/03/12 10:19:57;;;;;;;14.65;2.20;;;10.40;99.90;;;;;;5066890;28;20025;-75
2022/03/12 10:22:23;;;;;;;24.50;3.08;;;10.40;99.90;;;;;;5067217;28;20033;-75
2022/03/12 10:24:49;;;;;;;13.23;2.08;;;10.50;99.90;;;;;;5049226;28;20028;-75
2022/03/12 10:27:15;;;;;;;15.60;2.40;;;10.50;99.60;;;;;;5065566;28;20308;-76
2022/03/12 10:29:40;;;;;;;9.18;1.40;;;10.60;99.90;;;;;;5065792;28;20055;-76
2022/03/12 10:32:29;;;;;;;9.50;1.65;;;10.70;99.90;;;;;;5081870;28;20016;-75
2022/03/12 10:34:57;;;;;;;9.75;1.15;;;10.70;99.90;;;;;;5051948;28;20025;-76
2022/03/12 10:37:25;;;;;;;14.02;1.67;;;10.70;99.90;;;;;;5089433;28;20063;-75
2022/03/12 10:40:03;;;;;;;13.02;1.60;;;10.60;99.80;;;;;;5085496;28;20203;-75
2022/03/12 10:42:30;;;;;;;11.02;1.65;;;10.60;99.90;;;;;;5069252;28;20024;-76
2022/03/12 10:45:06;;;;;;;13.25;1.73;;;10.50;99.90;;;;;;5086332;28;20020;-76
2022/03/12 10:47:36;;;;;;;11.00;1.48;;;10.50;99.90;;;;;;5086175;28;20106;-77
2022/03/12 10:50:07;;;;;;;5.65;1.08;;;10.40;99.90;;;;;;5085193;28;20051;-73
2022/03/12 10:52:34;;;;;;;9.13;1.35;;;10.50;99.90;;;;;;5084927;28;20322;-76
2022/03/12 10:55:15;;;;;;;9.95;1.48;;;10.50;99.90;;;;;;5085867;28;20235;-74
2022/03/12 10:57:56;;;;;;;9.27;1.20;;;10.40;99.90;;;;;;5085351;28;20055;-75
2022/03/12 11:00:23;;;;;;;8.20;1.20;;;10.40;99.90;;;;;;5025930;28;20116;-76
2022/03/12 11:03:05;;;;;;;12.85;1.50;;;10.50;99.90;;;;;;5044324;28;20018;-78
2022/03/12 11:05:35;;;;;;;9.70;1.25;;;10.50;99.90;;;;;;5045202;28;20033;-76
2022/03/12 11:08:23;;;;;;;7.88;0.85;;;10.60;99.90;;;;;;5028599;28;20208;-76
2022/03/12 11:11:13;;;;;;;8.93;1.35;;;10.70;99.90;;;;;;5045933;28;20052;-76
2022/03/12 11:13:47;;;;;;;7.82;1.15;;;10.70;99.90;;;;;;5051314;28;20406;-76
2022/03/12 11:16:24;;;;;;;6.07;1.10;;;10.80;99.90;;;;;;5032461;28;20228;-76
2022/03/12 11:19:12;;;;;;;10.50;1.45;;;10.90;99.90;;;;;;5062861;28;20039;-75
2022/03/12 11:21:43;;;;;;;11.90;1.17;;;11.00;99.90;;;;;;5034985;28;20032;-75
2022/03/12 11:24:27;;;;;;;8.15;1.15;;;11.20;99.90;;;;;;5064711;28;20021;-76
2022/03/12 11:26:56;;;;;;;8.93;1.48;;;11.40;99.90;;;;;;5064435;28;20031;-76
2022/03/12 11:29:23;;;;;;;11.80;1.73;;;11.40;99.70;;;;;;5031508;28;20032;-75
2022/03/12 11:31:51;;;;;;;9.43;1.23;;;11.40;99.90;;;;;;5064998;28;20046;-76
2022/03/12 11:34:29;;;;;;;6.93;1.27;;;11.40;99.90;;;;;;5031418;28;20047;-76
2022/03/12 11:37:04;;;;;;;5.30;0.88;;;11.50;99.90;;;;;;5064471;28;20025;-75
2022/03/12 11:39:32;;;;;;;4.82;1.00;;;11.60;99.40;;;;;;5032147;28;20048;-77
2022/03/12 11:42:22;;;;;;;7.95;1.17;;;11.60;99.50;;;;;;5064442;28;20052;-77
2022/03/12 11:44:51;;;;;;;7.25;1.05;;;11.70;99.20;;;;;;5064224;28;20242;-75
2022/03/12 11:47:19;;;;;;;10.65;1.20;;;11.70;98.60;;;;;;5047323;28;20028;-76
2022/03/12 11:49:45;;;;;;;5.78;1.00;;;11.80;99.00;;;;;;5047531;28;20223;-76
2022/03/12 11:52:12;;;;;;;6.63;0.95;;;12.00;98.20;;;;;;5047404;28;20325;-75
2022/03/12 11:54:43;;;;;;;5.60;0.60;;;12.10;97.70;;;;;;5031067;28;20482;-74
2022/03/12 11:57:10;;;;;;;1.90;0.57;;;12.10;96.40;;;;;;5047417;28;20021;-75
2022/03/12 11:59:36;;;;;;;3.90;0.80;;;12.10;96.90;;;;;;5047370;28;20025;-75
2022/03/12 12:02:17;;;;;;;5.45;0.88;;;12.20;96.90;;;;;;5063619;28;20025;-75
2022/03/12 12:04:44;;;;;;;2.88;0.88;;;12.20;96.70;;;;;;5063620;28;20048;-76
2022/03/12 12:07:10;;;;;;;4.32;0.65;;;12.20;96.20;;;;;;5046713;28;20311;-77
2022/03/12 12:09:36;;;;;;;4.38;0.70;;;12.20;96.00;;;;;;5064281;28;20025;-75
2022/03/12 12:12:13;;;;;;;5.70;0.75;;;12.50;96.40;;;;;;5059557;28;20017;-75
2022/03/12 12:14:41;;;;;;;6.10;1.10;;;12.60;96.30;;;;;;5044389;28;20351;-77
2022/03/12 12:17:07;;;;;;;6.15;0.90;;;12.80;96.30;;;;;;5043603;28;20220;-76
2022/03/12 12:19:34;;;;;;;5.80;0.98;;;12.80;96.40;;;;;;5042683;28;20044;-76
2022/03/12 12:22:01;;;;;;;5.35;0.88;;;12.50;96.60;;;;;;5060111;28;20033;-75
2022/03/12 12:24:33;;;;;;;6.55;0.90;;;12.50;96.80;;;;;;5043220;28;20045;-76
2022/03/12 12:27:03;;;;;;;5.45;0.73;;;12.50;96.40;;;;;;5059417;28;20033;-76
2022/03/12 12:29:47;;;;;;;4.90;0.90;;;12.30;96.50;;;;;;5044257;28;20228;-75
2022/03/12 12:32:17;;;;;;;7.97;0.88;;;12.60;96.00;;;;;;5042848;28;20055;-75
2022/03/12 12:35:05;;;;;;;4.97;1.00;;;12.60;95.40;;;;;;5043046;28;20018;-76
2022/03/12 12:37:49;;;;;;;3.75;0.60;;;12.80;95.10;;;;;;5051465;28;20021;-77
2022/03/12 12:40:42;;;;;;;10.25;1.13;;;12.90;95.10;;;;;;5046925;28;20025;-76
2022/03/12 12:43:12;;;;;;;6.15;1.13;;;12.90;95.20;;;;;;5063092;28;20242;-77
2022/03/12 12:46:01;;;;;;;5.13;1.13;;;12.90;95.20;;;;;;5046812;28;20365;-76
2022/03/12 12:48:33;;;;;;;2.25;0.43;;;12.80;95.10;;;;;;5049167;28;20087;-74
2022/03/12 12:51:08;;;;;;;4.80;0.80;;;12.70;95.40;;;;;;5047121;28;20041;-77
2022/03/12 12:53:38;;;;;;;5.43;0.90;;;12.80;95.60;;;;;;5064248;28;20088;-75
2022/03/12 12:56:40;;;;;;;7.15;1.10;;;12.80;95.30;;;;;;5046476;28;20247;-77